Time;durP1;ratioP1;P1;durP2;ratioP2;P2;SDS_P1;SDS_P2;PMS_P1;PMS_P2;Temp;Humidity;BMP_temperature;BMP_pressure;BME280_temperature;BME280_humidity;BME280_pressure;Samples;Min_cycle;Max_cycle;Signal;HPM_P1;HPM_P2
2022/04/25 00:01:34;;;;;;;11.77;6.40;;;;;;;5.93;88.49;101191.84;5094018;28;20114;-76
2022/04/25 00:04:00;;;;;;;11.75;7.38;;;;;;;5.94;88.95;101193.50;5093600;28;20137;-81
2022/04/25 00:06:25;;;;;;;9.23;6.70;;;;;;;5.92;89.19;101192.78;5094082;28;20116;-74
2022/04/25 00:08:51;;;;;;;16.63;6.60;;;;;;;5.89;89.43;101183.25;5093669;28;20050;-74
2022/04/25 00:11:17;;;;;;;11.18;7.03;;;;;;;5.83;89.08;101187.13;5093806;28;20111;-74
2022/04/25 00:13:43;;;;;;;13.18;6.47;;;;;;;5.82;89.62;101187.22;5093884;28;20525;-74
2022/04/25 00:16:08;;;;;;;15.15;7.13;;;;;;;5.79;89.41;101190.94;5093305;28;20123;-74
2022/04/25 00:18:34;;;;;;;14.60;6.75;;;;;;;5.77;89.35;101189.34;5093762;28;20040;-74
2022/04/25 00:21:00;;;;;;;14.23;7.25;;;;;;;5.75;90.15;101192.06;5075452;28;20051;-79
2022/04/25 00:23:26;;;;;;;14.98;7.60;;;;;;;5.76;90.21;101185.00;5093555;28;20114;-74
2022/04/25 00:25:52;;;;;;;14.68;8.15;;;;;;;5.79;90.25;101190.94;5093342;28;20406;-74
2022/04/25 00:28:17;;;;;;;15.40;7.38;;;;;;;5.81;90.29;101188.19;5093000;28;20106;-74
2022/04/25 00:30:42;;;;;;;13.23;7.53;;;;;;;5.82;89.86;101192.50;5093097;28;20079;-75
2022/04/25 00:33:08;;;;;;;14.10;7.13;;;;;;;5.83;89.79;101188.94;5093679;28;20032;-75
2022/04/25 00:35:33;;;;;;;14.05;6.65;;;;;;;5.83;89.63;101181.84;5093406;28;20043;-74
2022/04/25 00:37:59;;;;;;;12.75;7.45;;;;;;;5.85;89.44;101175.63;5093091;28;20039;-74
2022/04/25 00:40:25;;;;;;;15.85;7.40;;;;;;;5.85;89.78;101181.75;5093055;28;20118;-74
2022/04/25 00:42:51;;;;;;;13.02;7.30;;;;;;;5.83;89.19;101181.84;5093260;28;20031;-74
2022/04/25 00:45:17;;;;;;;16.08;7.28;;;;;;;5.83;89.10;101188.94;5093311;28;20077;-74
2022/04/25 00:47:43;;;;;;;14.07;7.55;;;;;;;5.80;89.12;101184.69;5093194;28;20035;-74
2022/04/25 00:50:10;;;;;;;12.05;7.25;;;;;;;5.75;89.00;101184.16;5075285;28;20451;-74
2022/04/25 00:52:36;;;;;;;12.15;7.63;;;;;;;5.72;89.34;101178.19;5074969;28;20105;-75
2022/04/25 00:55:04;;;;;;;15.95;7.70;;;;;;;5.69;89.56;101184.56;5074979;28;20050;-74
2022/04/25 00:57:31;;;;;;;13.32;7.60;;;;;;;5.68;89.42;101182.84;5092672;28;20023;-74
2022/04/25 00:59:57;;;;;;;15.90;7.65;;;;;;;5.66;89.76;101182.13;5074708;28;20089;-74
2022/04/25 01:02:26;;;;;;;24.83;8.45;;;;;;;5.64;89.88;101190.13;5092873;28;20503;-74
2022/04/25 01:04:55;;;;;;;13.55;7.78;;;;;;;5.62;89.77;101168.25;5093154;28;20028;-74
2022/04/25 01:07:21;;;;;;;9.05;6.93;;;;;;;5.62;90.02;101177.97;5092898;28;20059;-74
2022/04/25 01:09:47;;;;;;;15.60;7.70;;;;;;;5.59;89.80;101176.38;5092954;28;20032;-74
2022/04/25 01:12:12;;;;;;;12.15;7.68;;;;;;;5.58;89.91;101179.09;5092787;28;20035;-74
2022/04/25 01:14:38;;;;;;;13.82;7.80;;;;;;;5.57;89.38;101178.28;5092654;28;20422;-74
2022/04/25 01:17:04;;;;;;;14.90;7.18;;;;;;;5.57;89.49;101169.47;5092874;28;20090;-74
2022/04/25 01:19:29;;;;;;;15.65;7.25;;;;;;;5.59;89.49;101170.25;5093171;28;20031;-74
2022/04/25 01:22:16;;;;;;;10.88;7.20;;;;;;;5.59;89.48;101167.59;5092881;28;20032;-74
2022/04/25 01:27:26;;;;;;;10.23;6.82;;;;;;;5.61;89.00;101169.22;5092044;28;20059;-74
2022/04/25 01:29:53;;;;;;;11.23;6.80;;;;;;;5.62;88.99;101165.59;5092755;28;20051;-75
2022/04/25 01:32:22;;;;;;;11.45;7.25;;;;;;;5.67;89.04;101161.81;5092276;28;20028;-75
2022/04/25 01:34:48;;;;;;;12.27;7.15;;;;;;;5.67;88.85;101156.56;5092329;28;20118;-74
2022/04/25 01:37:18;;;;;;;14.73;7.15;;;;;;;5.65;88.50;101165.41;5091890;28;20040;-74
2022/04/25 01:39:50;;;;;;;10.88;7.15;;;;;;;5.65;88.36;101162.75;5092150;28;20032;-73
2022/04/25 01:42:17;;;;;;;10.02;6.82;;;;;;;5.67;87.92;101164.47;5092216;28;20051;-74
2022/04/25 01:44:42;;;;;;;12.55;6.90;;;;;;;5.66;87.83;101158.34;5092701;28;20468;-74
2022/04/25 01:47:08;;;;;;;15.15;7.22;;;;;;;5.69;87.48;101159.94;5092077;28;20081;-74
2022/04/25 01:49:35;;;;;;;11.73;6.20;;;;;;;5.69;87.03;101170.47;5092172;28;20028;-74
2022/04/25 01:52:04;;;;;;;9.82;7.22;;;;;;;5.68;86.56;101159.09;5092542;28;20032;-74
2022/04/25 01:54:32;;;;;;;10.38;6.90;;;;;;;5.70;86.66;101159.00;5074582;28;20028;-74
2022/04/25 01:56:58;;;;;;;12.68;7.10;;;;;;;5.72;86.55;101165.00;5073841;28;20084;-74
2022/04/25 01:59:24;;;;;;;11.75;7.35;;;;;;;5.77;87.11;101158.47;5073960;28;20125;-74
2022/04/25 02:01:51;;;;;;;12.77;6.32;;;;;;;5.88;87.54;101162.22;5091951;28;20078;-74
2022/04/25 02:04:17;;;;;;;12.48;6.47;;;;;;;5.98;87.72;101161.53;5091542;28;20464;-75
2022/04/25 02:06:42;;;;;;;10.90;7.15;;;;;;;6.11;87.50;101160.75;5092066;28;20452;-74
2022/04/25 02:09:08;;;;;;;18.35;7.45;;;;;;;6.24;87.12;101155.47;5073511;28;20047;-74
2022/04/25 02:11:34;;;;;;;15.48;6.72;;;;;;;6.35;86.63;101159.09;5092200;28;20115;-75
2022/04/25 02:14:00;;;;;;;16.85;7.00;;;;;;;6.50;86.13;101156.34;5092270;28;20052;-74
2022/04/25 02:16:26;;;;;;;12.48;7.53;;;;;;;6.64;85.17;101156.25;5091648;28;20067;-74
2022/04/25 02:18:53;;;;;;;13.68;6.90;;;;;;;6.71;84.63;101157.50;5091825;28;20468;-74
2022/04/25 02:21:19;;;;;;;12.90;7.18;;;;;;;6.78;84.16;101160.59;5073688;28;20456;-75
2022/04/25 02:23:44;;;;;;;16.77;7.93;;;;;;;6.80;83.75;101152.53;5073336;28;20092;-74
2022/04/25 02:26:10;;;;;;;11.73;6.90;;;;;;;6.79;83.81;101158.78;5091322;28;20429;-73
2022/04/25 02:28:37;;;;;;;14.50;7.05;;;;;;;6.78;84.13;101157.94;5092654;28;20028;-75
2022/04/25 02:31:04;;;;;;;16.77;7.32;;;;;;;6.79;84.54;101157.00;5094558;28;20472;-75
2022/04/25 02:33:30;;;;;;;13.20;7.13;;;;;;;6.79;84.47;101153.50;5093176;28;20093;-75
2022/04/25 02:35:56;;;;;;;13.82;7.03;;;;;;;6.77;84.38;101156.25;5093295;28;20028;-75
2022/04/25 02:38:21;;;;;;;12.85;7.03;;;;;;;6.75;84.35;101152.00;5094500;28;20073;-74
2022/04/25 02:41:04;;;;;;;11.85;7.38;;;;;;;6.71;84.29;101151.38;5098641;28;20459;-74
2022/04/25 02:43:43;;;;;;;11.88;7.18;;;;;;;6.67;84.54;101142.84;5097929;28;20072;-74
2022/04/25 02:46:11;;;;;;;12.75;7.22;;;;;;;6.61;84.63;101148.50;5097277;28;20492;-74
2022/04/25 02:48:39;;;;;;;17.25;7.35;;;;;;;6.54;84.69;101149.91;5096786;28;20028;-74
2022/04/25 02:51:06;;;;;;;15.45;7.70;;;;;;;6.44;84.83;101144.41;5077646;28;20039;-74
2022/04/25 02:53:33;;;;;;;16.67;7.88;;;;;;;6.35;85.49;101145.03;5077071;28;20434;-75
2022/04/25 02:55:59;;;;;;;17.52;7.70;;;;;;;6.28;85.86;101144.59;5095061;28;20043;-75
2022/04/25 02:58:25;;;;;;;19.17;8.07;;;;;;;6.25;86.53;101152.72;5095041;28;20090;-75
2022/04/25 03:00:52;;;;;;;12.93;7.28;;;;;;;6.21;86.74;101145.97;5094429;28;20244;-74
2022/04/25 03:03:20;;;;;;;17.58;7.15;;;;;;;6.16;87.06;101148.91;5094631;28;20419;-74
2022/04/25 03:05:49;;;;;;;13.45;7.03;;;;;;;6.15;87.45;101151.63;5094857;28;20035;-74
2022/04/25 03:08:17;;;;;;;15.18;7.18;;;;;;;6.17;87.51;101147.13;5076089;28;20433;-74
2022/04/25 03:10:43;;;;;;;16.35;7.38;;;;;;;6.23;87.64;101144.06;5094740;28;20073;-74
2022/04/25 03:13:13;;;;;;;14.73;6.95;;;;;;;6.28;87.75;101146.38;5094936;28;20040;-74
2022/04/25 03:15:39;;;;;;;15.73;6.97;;;;;;;6.31;87.66;101146.19;5076615;28;20031;-74
2022/04/25 03:18:07;;;;;;;15.88;7.45;;;;;;;6.33;87.39;101139.00;5094931;28;20036;-74
2022/04/25 03:20:33;;;;;;;14.57;6.57;;;;;;;6.33;87.32;101141.66;5094288;28;20476;-74
2022/04/25 03:22:58;;;;;;;12.82;6.82;;;;;;;6.34;87.45;101141.56;5094578;28;20077;-74
2022/04/25 03:25:24;;;;;;;14.60;6.70;;;;;;;6.34;87.23;101140.69;5076477;28;20035;-80
2022/04/25 03:27:50;;;;;;;12.30;6.25;;;;;;;6.34;87.33;101133.63;5094184;28;20436;-74
2022/04/25 03:30:16;;;;;;;15.23;6.55;;;;;;;6.40;87.39;101142.06;5094042;28;20107;-74
2022/04/25 03:32:46;;;;;;;17.48;7.18;;;;;;;6.47;87.27;101140.72;5094336;28;20036;-74
2022/04/25 03:35:15;;;;;;;20.30;6.97;;;;;;;6.51;87.34;101136.91;5076006;28;20061;-74
2022/04/25 03:37:41;;;;;;;15.70;7.07;;;;;;;6.56;87.25;101145.34;5094379;28;20028;-74
2022/04/25 03:40:08;;;;;;;16.63;8.38;;;;;;;6.59;87.25;101142.50;5094475;28;20435;-74
2022/04/25 03:42:34;;;;;;;21.38;7.13;;;;;;;6.58;87.14;101139.97;5094110;28;20067;-74
2022/04/25 03:45:00;;;;;;;13.63;7.13;;;;;;;6.55;86.98;101140.19;5094528;28;20393;-74
2022/04/25 03:47:26;;;;;;;14.27;7.57;;;;;;;6.48;87.11;101145.88;5093998;28;20024;-74
2022/04/25 03:49:52;;;;;;;18.45;7.95;;;;;;;6.41;87.49;101146.41;5093389;28;20028;-74
2022/04/25 03:52:17;;;;;;;18.63;7.95;;;;;;;6.32;88.29;101153.16;5094048;28;20032;-74
2022/04/25 03:57:26;;;;;;;18.50;7.78;;;;;;;6.20;89.55;101154.84;5094510;28;20046;-74
2022/04/25 03:59:51;;;;;;;15.65;7.43;;;;;;;6.17;89.91;101141.84;5094409;28;20032;-74
2022/04/25 04:02:17;;;;;;;22.27;7.82;;;;;;;6.16;90.50;101142.78;5093907;28;20063;-74
2022/04/25 04:04:42;;;;;;;18.48;7.70;;;;;;;6.14;90.57;101147.31;5093866;28;20031;-74
2022/04/25 04:07:08;;;;;;;17.88;8.05;;;;;;;6.19;90.90;101150.50;5093928;28;20424;-74
2022/04/25 04:09:46;;;;;;;16.05;8.25;;;;;;;6.25;91.57;101147.44;5093685;28;20463;-74
2022/04/25 04:12:16;;;;;;;21.48;7.95;;;;;;;6.35;91.58;101151.16;5094405;28;20036;-74
2022/04/25 04:14:42;;;;;;;17.48;8.35;;;;;;;6.42;91.20;101151.59;5094018;28;20043;-74
2022/04/25 04:17:08;;;;;;;15.52;8.10;;;;;;;6.47;91.44;101146.81;5094044;28;20036;-74
2022/04/25 04:19:38;;;;;;;15.85;8.30;;;;;;;6.52;91.21;101154.44;5094172;28;20036;-74
2022/04/25 04:22:07;;;;;;;17.63;8.23;;;;;;;6.53;91.02;101156.16;5093417;28;20028;-74
2022/04/25 04:24:34;;;;;;;16.73;7.93;;;;;;;6.50;91.15;101157.19;5094218;28;20040;-79
2022/04/25 04:27:04;;;;;;;17.15;8.73;;;;;;;6.45;91.04;101161.97;5093674;28;20487;-74
2022/04/25 04:29:31;;;;;;;17.55;8.57;;;;;;;6.38;91.36;101159.84;5093545;28;20031;-74
2022/04/25 04:32:02;;;;;;;16.60;8.85;;;;;;;6.30;91.63;101161.19;5093625;28;20533;-74
2022/04/25 04:34:28;;;;;;;18.42;9.80;;;;;;;6.26;92.21;101164.16;5075028;28;20080;-74
2022/04/25 04:36:54;;;;;;;21.52;9.30;;;;;;;6.24;92.77;101176.59;5093384;28;20043;-74
2022/04/25 04:39:19;;;;;;;15.48;8.90;;;;;;;6.22;93.29;101176.72;5093733;28;20036;-74
2022/04/25 04:41:45;;;;;;;22.17;9.65;;;;;;;6.23;93.86;101180.22;5092959;28;20111;-74
2022/04/25 04:44:11;;;;;;;21.73;10.02;;;;;;;6.22;94.43;101173.22;5093349;28;20048;-74
2022/04/25 04:46:37;;;;;;;22.27;10.52;;;;;;;6.21;94.29;101172.41;5075599;28;20036;-75
2022/04/25 04:49:02;;;;;;;27.05;10.98;;;;;;;6.23;94.41;101174.94;5094122;28;20436;-74
2022/04/25 04:51:28;;;;;;;25.13;11.55;;;;;;;6.24;94.75;101177.47;5094041;28;20527;-74
2022/04/25 04:53:53;;;;;;;18.80;10.32;;;;;;;6.26;94.59;101183.50;5094156;28;20461;-75
2022/04/25 04:56:19;;;;;;;22.52;10.10;;;;;;;6.31;94.95;101194.59;5093838;28;20024;-74
2022/04/25 04:58:45;;;;;;;16.27;10.00;;;;;;;6.36;94.79;101191.66;5094184;28;20120;-74
2022/04/25 05:01:11;;;;;;;23.30;10.40;;;;;;;6.44;94.98;101196.44;5093142;28;20526;-75
2022/04/25 05:03:36;;;;;;;17.17;9.88;;;;;;;6.50;94.86;101199.50;5093305;28;20032;-80
2022/04/25 05:06:02;;;;;;;23.80;10.57;;;;;;;6.58;94.46;101196.31;5093666;28;20453;-73
2022/04/25 05:08:27;;;;;;;17.80;10.27;;;;;;;6.67;94.34;101193.06;5093404;28;20107;-74
2022/04/25 05:10:54;;;;;;;19.60;9.82;;;;;;;6.77;93.89;101208.31;5093625;28;20040;-75
2022/04/25 05:13:20;;;;;;;18.35;10.07;;;;;;;6.84;93.65;101209.59;5075336;28;20114;-73
2022/04/25 05:15:47;;;;;;;21.00;11.82;;;;;;;6.86;92.75;101212.94;5074972;28;20538;-74
2022/04/25 05:18:12;;;;;;;16.58;11.40;;;;;;;6.84;91.73;101207.78;5093813;28;20036;-74
2022/04/25 05:20:38;;;;;;;15.23;10.13;;;;;;;6.80;91.84;101210.72;5093487;28;20043;-78
2022/04/25 05:23:03;;;;;;;18.48;10.05;;;;;;;6.74;91.67;101214.63;5093241;28;20039;-73
2022/04/25 05:25:29;;;;;;;19.73;9.73;;;;;;;6.66;91.73;101216.97;5093161;28;20468;-74
2022/04/25 05:27:56;;;;;;;22.90;10.55;;;;;;;6.59;91.87;101215.69;5093267;28;20060;-74
2022/04/25 05:30:24;;;;;;;16.58;9.68;;;;;;;6.52;91.80;101216.13;5093655;28;20028;-74
2022/04/25 05:32:51;;;;;;;22.83;10.20;;;;;;;6.45;92.27;101219.25;5093084;28;20028;-74
2022/04/25 05:35:24;;;;;;;15.13;9.73;;;;;;;6.38;92.52;101220.63;5093183;28;20038;-75
2022/04/25 05:37:50;;;;;;;16.83;10.38;;;;;;;6.32;92.93;101222.72;5093173;28;20127;-74
2022/04/25 05:40:17;;;;;;;19.02;10.60;;;;;;;6.29;93.10;101224.72;5093200;28;20111;-75
2022/04/25 05:42:43;;;;;;;19.15;10.40;;;;;;;6.24;93.18;101225.03;5093117;28;20085;-76
2022/04/25 05:45:10;;;;;;;19.27;10.90;;;;;;;6.20;93.50;101225.34;5093257;28;20050;-75
2022/04/25 05:47:37;;;;;;;19.77;10.65;;;;;;;6.14;93.83;101232.72;5093040;28;20476;-75
2022/04/25 05:52:48;;;;;;;18.02;10.55;;;;;;;6.08;94.16;101233.13;5093003;28;20529;-75
2022/04/25 05:55:13;;;;;;;22.83;10.60;;;;;;;6.11;94.58;101240.00;5092902;28;20032;-75
2022/04/25 05:57:40;;;;;;;15.90;10.52;;;;;;;6.15;95.05;101244.97;5092846;28;20032;-75
2022/04/25 06:00:07;;;;;;;21.27;10.85;;;;;;;6.21;95.16;101249.03;5092701;28;20071;-75
2022/04/25 06:02:36;;;;;;;19.80;10.98;;;;;;;6.28;95.22;101250.28;5093187;28;20028;-75
2022/04/25 06:05:01;;;;;;;21.88;11.45;;;;;;;6.36;95.34;101244.53;5092432;28;20151;-75
2022/04/25 06:07:26;;;;;;;20.95;11.07;;;;;;;6.49;95.45;101249.81;5092795;28;20455;-75
2022/04/25 06:09:52;;;;;;;19.45;11.63;;;;;;;6.61;95.28;101256.91;5092583;28;20043;-75
2022/04/25 06:12:17;;;;;;;16.65;10.68;;;;;;;6.75;95.08;101257.78;5092602;28;20081;-75
2022/04/25 06:14:44;;;;;;;19.92;12.65;;;;;;;6.91;94.71;101257.59;5092563;28;20072;-75
2022/04/25 06:17:13;;;;;;;18.30;11.38;;;;;;;7.05;94.06;101261.00;5092466;28;20036;-75
2022/04/25 06:19:38;;;;;;;15.35;10.88;;;;;;;7.22;93.55;101264.28;5092427;28;20115;-75
2022/04/25 06:22:04;;;;;;;18.05;11.07;;;;;;;7.38;93.17;101261.41;5074448;28;20059;-75
2022/04/25 06:24:29;;;;;;;19.85;10.30;;;;;;;7.53;93.32;101259.47;5093098;28;20469;-75
2022/04/25 06:26:55;;;;;;;18.55;10.98;;;;;;;7.65;92.39;101255.09;5092583;28;20028;-76
2022/04/25 06:29:21;;;;;;;18.20;10.77;;;;;;;7.76;92.02;101263.97;5092484;28;20479;-75
2022/04/25 06:31:47;;;;;;;17.08;10.30;;;;;;;7.85;91.74;101264.25;5092824;28;20054;-80
2022/04/25 06:34:12;;;;;;;13.70;9.35;;;;;;;7.90;91.04;101262.13;5092443;28;20406;-75
2022/04/25 06:36:37;;;;;;;15.63;9.90;;;;;;;7.90;90.45;101267.44;5092388;28;20050;-74
2022/04/25 06:39:03;;;;;;;13.25;9.55;;;;;;;7.87;90.99;101267.66;5092197;28;20472;-74
2022/04/25 06:41:30;;;;;;;13.45;9.98;;;;;;;7.81;91.51;101268.94;5092747;28;20460;-75
2022/04/25 06:43:57;;;;;;;17.33;10.02;;;;;;;7.77;92.53;101267.47;5092496;28;20056;-75
2022/04/25 06:46:22;;;;;;;13.52;9.73;;;;;;;7.72;93.79;101277.56;5092620;28;20380;-74
2022/04/25 06:51:32;;;;;;;17.35;11.25;;;;;;;7.64;95.06;101279.88;5092673;28;20066;-76
2022/04/25 06:53:58;;;;;;;21.98;11.57;;;;;;;7.61;95.34;101282.75;5093253;28;20070;-74
2022/04/25 06:56:24;;;;;;;21.80;12.93;;;;;;;7.56;96.13;101283.09;5092846;28;20052;-79
2022/04/25 06:58:49;;;;;;;25.60;13.38;;;;;;;7.55;96.77;101291.97;5074535;28;20123;-82
2022/04/25 07:01:14;;;;;;;20.90;13.60;;;;;;;7.55;97.76;101291.97;5092247;28;20395;-77
2022/04/25 07:03:40;;;;;;;23.45;13.65;;;;;;;7.54;98.04;101292.97;5092190;28;20052;-75
2022/04/25 07:06:05;;;;;;;22.85;13.90;;;;;;;7.52;98.52;101295.69;5091994;28;20039;-75
2022/04/25 07:08:33;;;;;;;24.08;15.35;;;;;;;7.49;99.02;101300.34;5092308;28;20123;-78
2022/04/25 07:10:58;;;;;;;22.65;13.48;;;;;;;7.33;99.41;101296.16;5092624;28;20035;-78
2022/04/25 07:13:24;;;;;;;21.42;15.18;;;;;;;7.28;99.67;101300.91;5092815;28;20052;-76
2022/04/25 07:15:50;;;;;;;28.33;16.35;;;;;;;7.25;100.00;101298.47;5092655;28;20036;-76
2022/04/25 07:18:16;;;;;;;24.33;16.67;;;;;;;7.25;100.00;101311.69;5092102;28;20028;-76
2022/04/25 07:20:42;;;;;;;28.77;16.92;;;;;;;7.24;100.00;101305.56;5092215;28;20055;-72
2022/04/25 07:28:52;;;;;;;25.13;17.00;;;;;;;7.22;100.00;101306.63;5095865;28;20081;-74
2022/04/25 07:31:22;;;;;;;31.50;18.60;;;;;;;7.23;100.00;101310.97;5096078;28;20024;-76
2022/04/25 07:33:47;;;;;;;30.08;18.20;;;;;;;7.23;100.00;101310.97;5095554;28;20030;-73
2022/04/25 07:36:14;;;;;;;31.60;18.48;;;;;;;7.26;100.00;101312.56;5095804;28;20055;-75
2022/04/25 07:38:40;;;;;;;25.05;15.90;;;;;;;7.17;100.00;101320.16;5095562;28;20036;-76
2022/04/25 07:41:07;;;;;;;28.75;17.15;;;;;;;7.15;100.00;101318.56;5095337;28;20046;-74
2022/04/25 07:43:34;;;;;;;27.20;16.20;;;;;;;7.16;100.00;101320.28;5095165;28;20052;-74
2022/04/25 07:46:00;;;;;;;25.15;15.00;;;;;;;7.16;100.00;101328.22;5077639;28;20334;-74
2022/04/25 07:48:25;;;;;;;26.45;16.35;;;;;;;7.14;100.00;101322.19;5095618;28;20043;-73
2022/04/25 07:50:51;;;;;;;26.25;16.63;;;;;;;7.18;100.00;101331.59;5095220;28;20028;-74
2022/04/25 07:53:16;;;;;;;30.00;17.98;;;;;;;7.20;100.00;101329.72;5095264;28;20426;-75
2022/04/25 07:55:42;;;;;;;26.40;17.42;;;;;;;7.20;100.00;101324.41;5095115;28;20040;-74
2022/04/25 07:58:08;;;;;;;27.25;17.15;;;;;;;7.15;100.00;101326.50;5076760;28;20036;-73
2022/04/25 08:00:35;;;;;;;28.80;17.95;;;;;;;7.13;100.00;101325.78;5095213;28;20437;-73
2022/04/25 08:03:01;;;;;;;32.13;17.88;;;;;;;7.13;100.00;101328.44;5094743;28;20111;-74
2022/04/25 08:05:26;;;;;;;33.95;17.38;;;;;;;7.12;100.00;101329.38;5095250;28;20158;-72
2022/04/25 08:07:51;;;;;;;34.08;19.40;;;;;;;7.15;100.00;101337.09;5095327;28;20028;-72
2022/04/25 08:10:17;;;;;;;27.83;17.85;;;;;;;7.20;100.00;101340.28;5094508;28;20028;-73
2022/04/25 08:18:12;;;;;;;31.00;18.77;;;;;;;7.26;100.00;101342.53;5094394;28;20084;-75
2022/04/25 08:20:38;;;;;;;29.35;18.60;;;;;;;7.28;100.00;101343.25;5094135;28;20084;-73
2022/04/25 08:23:05;;;;;;;28.90;18.63;;;;;;;7.31;100.00;101345.69;5094425;28;20039;-75
2022/04/25 08:25:30;;;;;;;33.72;18.73;;;;;;;7.37;100.00;101352.34;5094728;28;20390;-74
2022/04/25 08:28:00;;;;;;;35.20;19.23;;;;;;;7.38;100.00;101346.13;5094577;28;20120;-73
2022/04/25 08:30:26;;;;;;;35.58;18.33;;;;;;;7.39;100.00;101350.47;5094195;28;20028;-74
2022/04/25 08:32:54;;;;;;;33.03;18.55;;;;;;;7.41;100.00;101354.69;5094319;28;20051;-72
2022/04/25 08:35:21;;;;;;;27.88;18.15;;;;;;;7.37;100.00;101355.00;5094161;28;20032;-75
2022/04/25 08:37:46;;;;;;;36.17;18.85;;;;;;;7.40;100.00;101357.44;5093390;28;20032;-73
2022/04/25 08:40:11;;;;;;;32.33;18.77;;;;;;;7.39;100.00;101356.59;5094321;28;20043;-75
2022/04/25 08:42:37;;;;;;;30.23;17.00;;;;;;;7.35;100.00;101354.28;5094671;28;20082;-74
2022/04/25 08:45:05;;;;;;;28.20;17.27;;;;;;;7.38;100.00;101362.84;5094664;28;20048;-78
2022/04/25 08:47:34;;;;;;;29.67;16.25;;;;;;;7.35;100.00;101368.34;5094317;28;20086;-73
2022/04/25 08:50:00;;;;;;;29.40;16.58;;;;;;;7.39;100.00;101361.06;5094135;28;20028;-75
2022/04/25 08:52:29;;;;;;;26.88;16.30;;;;;;;7.53;100.00;101362.75;5094152;28;20096;-74
2022/04/25 08:54:58;;;;;;;28.80;17.15;;;;;;;7.68;100.00;101364.31;5075864;28;20032;-73
2022/04/25 08:57:31;;;;;;;29.38;16.02;;;;;;;7.78;100.00;101367.19;5092578;28;20036;-70
2022/04/25 08:59:59;;;;;;;23.10;15.07;;;;;;;7.81;100.00;101369.63;5094296;28;20036;-72
2022/04/25 09:02:25;;;;;;;26.38;16.13;;;;;;;7.98;100.00;101368.41;5094086;28;20414;-74
2022/04/25 09:04:50;;;;;;;22.25;15.88;;;;;;;8.19;100.00;101379.28;5093961;28;20028;-72
2022/04/25 09:07:17;;;;;;;26.83;15.05;;;;;;;8.30;100.00;101378.53;5094115;28;20427;-73
2022/04/25 09:09:43;;;;;;;25.58;15.90;;;;;;;8.41;100.00;101372.44;5075757;28;20111;-73
2022/04/25 09:12:11;;;;;;;29.48;16.75;;;;;;;8.61;100.00;101370.97;5093704;28;20082;-76
2022/04/25 09:14:39;;;;;;;26.02;15.95;;;;;;;8.89;100.00;101369.78;5075411;28;20035;-73
2022/04/25 09:17:05;;;;;;;24.95;14.40;;;;;;;9.02;98.82;101369.72;5093668;28;20024;-72
2022/04/25 09:19:31;;;;;;;21.27;13.73;;;;;;;9.17;97.31;101379.16;5075730;28;20039;-71
2022/04/25 09:21:57;;;;;;;24.35;13.55;;;;;;;9.39;97.32;101376.66;5093455;28;20320;-71
2022/04/25 09:24:30;;;;;;;20.90;13.60;;;;;;;9.48;96.55;101379.47;5093532;28;20028;-72
2022/04/25 09:27:22;;;;;;;19.50;13.07;;;;;;;9.51;93.79;101389.03;5093639;28;20067;-71
2022/04/25 09:29:48;;;;;;;;;;;;;;;9.57;94.98;101400.97;5093963;28;20035;-72
2022/04/25 09:32:14;;;;;;;21.30;12.43;;;;;;;9.26;92.34;101403.34;5093450;28;19974;-72
2022/04/25 09:37:40;;;;;;;19.17;13.48;;;;;;;9.26;92.85;101390.06;5093855;28;20051;-72
2022/04/25 09:40:06;;;;;;;22.55;12.90;;;;;;;9.40;94.67;101384.50;5075793;28;20028;-72
2022/04/25 09:42:31;;;;;;;17.92;13.52;;;;;;;9.51;93.88;101381.88;5075350;28;20449;-72
2022/04/25 09:44:59;;;;;;;19.40;12.55;;;;;;;9.66;93.01;101387.00;5075112;28;20105;-73
2022/04/25 09:47:36;;;;;;;21.40;13.63;;;;;;;9.74;92.84;101403.16;5092534;28;20107;-73
2022/04/25 09:50:13;;;;;;;18.85;12.07;;;;;;;9.51;90.03;101399.66;5093560;28;20028;-73
2022/04/25 09:52:55;;;;;;;21.98;13.30;;;;;;;9.29;92.79;101405.75;5093648;28;20024;-73
2022/04/25 09:55:23;;;;;;;20.73;13.88;;;;;;;9.20;92.66;101417.91;5094390;28;20042;-73
2022/04/25 09:57:50;;;;;;;22.65;14.85;;;;;;;9.04;93.26;101412.06;5093467;28;20016;-73
2022/04/25 10:00:38;;;;;;;23.20;14.48;;;;;;;8.81;94.30;101417.28;5093977;28;20055;-74
2022/04/25 10:03:05;;;;;;;25.55;14.77;;;;;;;8.58;93.88;101418.97;5093953;28;20028;-73
2022/04/25 10:05:39;;;;;;;23.85;15.07;;;;;;;8.46;95.19;101421.56;5093100;28;20035;-73
2022/04/25 10:08:06;;;;;;;27.13;15.77;;;;;;;8.51;97.49;101425.66;5093599;28;20055;-74
2022/04/25 10:10:32;;;;;;;28.67;16.42;;;;;;;8.59;99.10;101424.16;5093140;28;20035;-73
2022/04/25 10:13:00;;;;;;;19.88;14.30;;;;;;;8.64;98.65;101415.84;5093119;28;20028;-73
2022/04/25 10:15:25;;;;;;;24.63;14.88;;;;;;;8.71;98.43;101422.41;5092841;28;20031;-73
2022/04/25 10:17:53;;;;;;;21.13;15.15;;;;;;;8.79;98.38;101424.50;5093315;28;20035;-73
2022/04/25 10:20:19;;;;;;;22.73;15.90;;;;;;;8.89;98.83;101428.16;5093681;28;20046;-74
2022/04/25 10:22:44;;;;;;;26.63;16.67;;;;;;;9.09;99.01;101417.88;5074847;28;20456;-73
2022/04/25 10:25:10;;;;;;;23.73;16.45;;;;;;;9.20;97.07;101420.56;5074599;28;20507;-74
2022/04/25 10:27:39;;;;;;;24.48;15.90;;;;;;;9.37;95.67;101423.75;5093181;28;20060;-73
2022/04/25 10:30:12;;;;;;;22.95;14.65;;;;;;;9.52;95.15;101426.09;5092810;28;20036;-73
2022/04/25 10:32:38;;;;;;;22.75;13.55;;;;;;;9.72;94.22;101426.38;5074659;28;20380;-73
2022/04/25 10:35:04;;;;;;;28.10;14.40;;;;;;;9.95;92.83;101424.53;5092522;28;20043;-73
2022/04/25 10:37:36;;;;;;;25.52;14.10;;;;;;;10.05;90.23;101432.66;5093063;28;20064;-73
2022/04/25 10:40:05;;;;;;;23.25;13.63;;;;;;;10.18;90.08;101430.72;5093136;28;20111;-74
2022/04/25 10:45:14;;;;;;;21.10;12.43;;;;;;;10.16;88.35;101440.63;5092846;28;20059;-73
2022/04/25 10:47:57;;;;;;;20.10;13.63;;;;;;;10.16;89.26;101442.44;5092724;28;20427;-73
2022/04/25 10:50:24;;;;;;;19.00;12.32;;;;;;;10.18;89.02;101443.16;5092614;28;20028;-74
2022/04/25 10:55:23;;;;;;;18.10;12.40;;;;;;;10.07;88.39;101451.97;5092642;28;20063;-74
2022/04/25 10:58:03;;;;;;;21.30;12.35;;;;;;;10.01;88.02;101455.13;5093112;28;20078;-74
2022/04/25 11:00:37;;;;;;;17.77;12.68;;;;;;;10.02;88.64;101454.16;5094985;28;20081;-73
2022/04/25 11:03:10;;;;;;;19.45;12.52;;;;;;;10.07;89.37;101458.13;5097542;28;20024;-76
2022/04/25 11:05:37;;;;;;;20.67;12.82;;;;;;;10.12;87.92;101459.59;5096779;28;20111;-73
2022/04/25 11:08:18;;;;;;;23.50;12.15;;;;;;;10.11;87.79;101460.59;5096772;28;20047;-73
2022/04/25 11:10:46;;;;;;;20.70;12.93;;;;;;;9.91;86.80;101464.78;5097170;28;20043;-71
2022/04/25 11:13:18;;;;;;;20.25;13.30;;;;;;;9.79;88.04;101469.25;5096683;28;20024;-74
2022/04/25 11:15:50;;;;;;;18.55;13.35;;;;;;;9.63;89.49;101475.75;5096612;28;20403;-75
2022/04/25 11:18:37;;;;;;;20.35;12.13;;;;;;;9.37;89.58;101480.38;5096514;28;20438;-75
2022/04/25 11:21:08;;;;;;;23.65;12.73;;;;;;;9.25;90.24;101486.59;5096247;28;20115;-74
2022/04/25 11:23:35;;;;;;;;;;;;;;;9.05;89.65;101480.97;5096064;28;20460;-74
2022/04/25 11:26:01;;;;;;;24.30;13.55;;;;;;;8.94;91.55;101487.06;5095703;28;19947;-75
2022/04/25 11:28:28;;;;;;;21.35;13.07;;;;;;;8.82;91.84;101486.16;5096065;28;20060;-76
2022/04/25 11:31:15;;;;;;;22.63;12.30;;;;;;;8.61;91.52;101485.91;5095683;28;20101;-75
2022/04/25 11:33:42;;;;;;;18.02;12.07;;;;;;;8.40;90.96;101490.91;5095384;28;20039;-75
2022/04/25 11:36:08;;;;;;;20.20;13.25;;;;;;;8.41;92.01;101489.13;5077869;28;20046;-74
2022/04/25 11:41:28;;;;;;;20.73;13.73;;;;;;;8.42;94.20;101485.47;5095612;28;20043;-74
2022/04/25 11:43:53;;;;;;;23.88;15.07;;;;;;;8.48;95.87;101487.75;5095561;28;20133;-75
2022/04/25 11:46:19;;;;;;;19.23;12.93;;;;;;;8.52;95.94;101485.72;5095476;28;20024;-75
2022/04/25 11:48:49;;;;;;;20.27;14.20;;;;;;;8.57;95.98;101486.22;5095431;28;20089;-73
2022/04/25 11:51:24;;;;;;;22.63;13.45;;;;;;;8.60;96.06;101491.34;5095388;28;20521;-74
2022/04/25 11:53:54;;;;;;;18.70;12.98;;;;;;;8.65;95.98;101491.84;5095070;28;20047;-74